createdAt,value
2022-08-17T00:00:10.226Z,18.40
2022-08-17T00:03:11.793Z,17.92
2022-08-17T00:06:12.229Z,17.45
2022-08-17T00:08:45.912Z,16.77
2022-08-17T00:11:19.860Z,16.70
2022-08-17T00:13:56.023Z,17.10
2022-08-17T00:16:56.068Z,17.40
2022-08-17T00:19:15.813Z,16.08
2022-08-17T00:22:30.877Z,15.52
2022-08-17T00:24:33.891Z,15.48
2022-08-17T00:27:00.940Z,15.77
2022-08-17T00:29:27.833Z,14.98
2022-08-17T00:31:54.722Z,15.38
2022-08-17T00:34:21.795Z,14.88
2022-08-17T00:36:48.772Z,15.50
2022-08-17T00:39:15.679Z,15.95
2022-08-17T00:41:42.847Z,16.30
2022-08-17T00:44:09.874Z,17.60
2022-08-17T00:46:41.137Z,19.05
2022-08-17T00:49:10.433Z,18.48
2022-08-17T00:51:55.215Z,18.08
2022-08-17T00:54:27.546Z,20.30
2022-08-17T00:56:58.919Z,18.90
2022-08-17T00:59:33.199Z,17.92
2022-08-17T01:02:00.919Z,19.00
2022-08-17T01:04:29.606Z,17.05
2022-08-17T01:06:58.176Z,18.85
2022-08-17T01:09:25.748Z,18.15
2022-08-17T01:11:52.718Z,19.90
2022-08-17T01:14:25.683Z,17.83
2022-08-17T01:16:55.134Z,18.35
2022-08-17T01:19:26.369Z,18.08
2022-08-17T01:22:16.738Z,16.73
2022-08-17T01:24:47.747Z,17.52
2022-08-17T01:27:18.495Z,15.73
2022-08-17T01:29:52.786Z,17.45
2022-08-17T01:32:20.076Z,15.88
2022-08-17T01:34:50.496Z,16.80
2022-08-17T01:37:19.450Z,15.18
2022-08-17T01:39:57.362Z,16.52
2022-08-17T01:42:33.383Z,16.33
2022-08-17T01:45:09.127Z,15.35
2022-08-17T01:47:37.701Z,17.73
2022-08-17T01:50:11.291Z,15.18
2022-08-17T01:52:39.624Z,16.27
2022-08-17T01:55:07.379Z,17.33
2022-08-17T01:57:34.530Z,18.42
2022-08-17T02:00:01.852Z,17.05
2022-08-17T02:02:38.270Z,18.80
2022-08-17T02:05:06.072Z,18.58
2022-08-17T02:07:33.086Z,17.60
2022-08-17T02:10:20.523Z,17.48
2022-08-17T02:12:49.064Z,16.13
2022-08-17T02:15:16.528Z,16.27
2022-08-17T02:17:43.552Z,16.75
2022-08-17T02:20:10.944Z,16.38
2022-08-17T02:22:40.466Z,17.58
2022-08-17T02:25:10.059Z,19.13
2022-08-17T02:27:38.877Z,19.05
2022-08-17T02:30:59.656Z,17.52
2022-08-17T02:32:56.233Z,14.73
2022-08-17T02:35:23.959Z,16.15
2022-08-17T02:37:55.367Z,16.83
2022-08-17T02:40:36.371Z,14.07
2022-08-17T02:43:05.318Z,14.65
2022-08-17T02:45:32.394Z,13.20
2022-08-17T02:47:59.572Z,13.05
2022-08-17T02:50:26.917Z,12.38
2022-08-17T02:53:01.760Z,13.85
2022-08-17T02:55:33.917Z,12.95
2022-08-17T02:58:01.878Z,12.93
2022-08-17T03:00:34.742Z,13.23
2022-08-17T03:03:04.472Z,12.13
2022-08-17T03:05:34.370Z,13.90
2022-08-17T03:08:01.961Z,13.77
2022-08-17T03:10:29.852Z,12.35
2022-08-17T03:12:56.922Z,12.48
2022-08-17T03:15:27.663Z,11.93
2022-08-17T03:17:56.793Z,11.82
2022-08-17T03:20:25.492Z,13.10
2022-08-17T03:22:55.171Z,13.05
2022-08-17T03:25:35.674Z,12.15
2022-08-17T03:28:03.465Z,13.48
2022-08-17T03:30:31.179Z,13.77
2022-08-17T03:33:00.941Z,14.57
2022-08-17T03:35:31.562Z,14.35
2022-08-17T03:38:00.228Z,16.95
2022-08-17T03:40:34.602Z,18.45
2022-08-17T03:43:19.485Z,18.60
2022-08-17T03:46:04.759Z,18.05
2022-08-17T03:48:51.442Z,18.25
2022-08-17T03:51:41.298Z,19.40
2022-08-17T03:54:28.220Z,20.90
2022-08-17T03:57:06.952Z,22.20
2022-08-17T03:59:35.236Z,22.00
2022-08-17T04:02:09.654Z,21.95
2022-08-17T04:04:37.996Z,26.10
2022-08-17T04:07:05.688Z,23.02
2022-08-17T04:09:32.685Z,24.80
2022-08-17T04:12:02.426Z,24.05
2022-08-17T04:14:53.030Z,26.05
2022-08-17T04:17:27.976Z,24.90
2022-08-17T04:19:55.852Z,26.25
2022-08-17T04:22:30.508Z,29.33
2022-08-17T04:25:16.702Z,27.17
2022-08-17T04:27:44.048Z,28.30
2022-08-17T04:30:11.639Z,29.50
2022-08-17T04:33:06.482Z,31.88
2022-08-17T04:35:50.608Z,30.98
2022-08-17T04:38:22.539Z,32.25
2022-08-17T04:41:08.554Z,32.60
2022-08-17T04:43:37.592Z,32.53
2022-08-17T04:46:08.259Z,32.53
2022-08-17T04:48:55.356Z,35.00
2022-08-17T04:51:49.674Z,36.65
2022-08-17T04:54:23.097Z,35.13
2022-08-17T04:56:50.141Z,34.10
2022-08-17T04:59:22.412Z,37.38
2022-08-17T05:01:52.138Z,34.43
2022-08-17T05:04:33.950Z,37.33
2022-08-17T05:07:04.717Z,37.60
2022-08-17T05:09:38.458Z,37.13
2022-08-17T05:12:29.960Z,37.33
2022-08-17T05:14:56.935Z,35.03
2022-08-17T05:17:23.809Z,36.30
2022-08-17T05:19:52.114Z,35.58
2022-08-17T05:22:19.154Z,37.47
2022-08-17T05:24:53.710Z,36.10
2022-08-17T05:27:21.123Z,34.97
2022-08-17T05:29:50.365Z,35.55
2022-08-17T05:32:38.735Z,34.72
2022-08-17T05:35:07.879Z,33.20
2022-08-17T05:37:34.822Z,33.28
2022-08-17T05:40:01.888Z,33.13
2022-08-17T05:42:29.442Z,36.38
2022-08-17T05:44:57.991Z,33.85
2022-08-17T05:47:26.770Z,35.22
2022-08-17T05:49:54.161Z,31.40
2022-08-17T05:52:27.338Z,31.50
2022-08-17T05:55:03.332Z,31.85
2022-08-17T05:58:07.042Z,31.20
2022-08-17T06:00:50.831Z,28.70
2022-08-17T06:03:38.602Z,28.38
2022-08-17T06:06:14.770Z,27.35
2022-08-17T06:08:51.936Z,28.45
2022-08-17T06:11:28.339Z,26.00
2022-08-17T06:14:09.815Z,26.13
2022-08-17T06:16:45.714Z,26.75
2022-08-17T06:19:40.782Z,27.20
2022-08-17T06:22:10.194Z,23.48
2022-08-17T06:24:53.349Z,25.10
2022-08-17T06:30:15.455Z,21.55
2022-08-17T06:32:46.229Z,22.25
2022-08-17T06:35:30.039Z,19.60
2022-08-17T06:38:36.975Z,22.50
2022-08-17T06:41:43.625Z,19.50
2022-08-17T06:44:43.433Z,20.60
2022-08-17T06:47:36.394Z,19.10
2022-08-17T06:50:35.157Z,17.40
2022-08-17T06:53:25.917Z,18.90
2022-08-17T06:56:06.400Z,19.13
2022-08-17T06:58:35.816Z,18.10
2022-08-17T07:01:13.080Z,18.38
2022-08-17T07:03:54.688Z,16.73
2022-08-17T07:06:27.121Z,14.73
2022-08-17T07:09:02.614Z,13.82
2022-08-17T07:11:36.409Z,14.27
2022-08-17T07:14:25.192Z,15.75
2022-08-17T07:16:56.356Z,14.48
2022-08-17T07:19:31.789Z,13.63
2022-08-17T07:22:06.681Z,13.38
2022-08-17T07:24:35.642Z,12.50
2022-08-17T07:27:21.389Z,11.73
2022-08-17T07:29:50.813Z,12.93
2022-08-17T07:32:23.020Z,13.13
2022-08-17T07:35:41.441Z,11.27
2022-08-17T07:38:24.763Z,10.60
2022-08-17T07:41:02.211Z,9.18
2022-08-17T07:43:41.600Z,10.63
2022-08-17T07:46:29.815Z,11.55
2022-08-17T07:49:16.583Z,11.85
2022-08-17T07:51:43.508Z,10.65
2022-08-17T07:54:40.902Z,11.75
2022-08-17T07:57:13.689Z,10.60
2022-08-17T08:02:33.567Z,9.55
2022-08-17T08:05:10.081Z,9.27
2022-08-17T08:07:52.324Z,8.27
2022-08-17T08:10:27.926Z,9.73
2022-08-17T08:13:14.246Z,9.90
2022-08-17T08:15:45.192Z,9.63
2022-08-17T08:18:53.562Z,8.63
2022-08-17T08:21:35.471Z,8.40
2022-08-17T08:24:11.251Z,8.63
2022-08-17T08:26:47.954Z,8.10
2022-08-17T08:29:38.081Z,7.18
2022-08-17T08:32:10.987Z,7.68
2022-08-17T08:35:06.802Z,7.45
2022-08-17T08:37:44.987Z,8.93
2022-08-17T08:40:39.198Z,7.75
2022-08-17T08:43:22.111Z,7.35
2022-08-17T08:46:27.102Z,7.10
2022-08-17T08:49:12.703Z,7.45
2022-08-17T08:51:52.853Z,6.40
2022-08-17T08:54:45.288Z,7.03
2022-08-17T08:57:47.225Z,5.90
2022-08-17T09:00:23.067Z,5.57
2022-08-17T09:03:08.553Z,5.80
2022-08-17T09:06:06.926Z,5.45
2022-08-17T09:09:31.429Z,5.07
2022-08-17T09:12:05.129Z,5.15
2022-08-17T09:14:46.937Z,5.78
2022-08-17T09:17:27.960Z,6.00
2022-08-17T09:20:02.328Z,6.03
2022-08-17T09:22:37.129Z,6.05
2022-08-17T09:25:10.946Z,5.32
2022-08-17T09:27:47.825Z,4.80
2022-08-17T09:30:15.180Z,4.25
2022-08-17T09:32:45.661Z,5.50
2022-08-17T09:35:22.883Z,5.10
2022-08-17T09:38:23.599Z,5.47
2022-08-17T09:40:56.437Z,4.80
2022-08-17T09:43:38.615Z,4.40
2022-08-17T09:46:19.460Z,5.03
2022-08-17T09:49:09.804Z,5.15
2022-08-17T09:51:44.231Z,4.88
2022-08-17T09:54:38.696Z,5.00
2022-08-17T09:57:40.122Z,5.20
2022-08-17T10:00:16.681Z,4.60
2022-08-17T10:03:05.336Z,5.10
2022-08-17T10:06:02.865Z,4.90
2022-08-17T10:08:48.386Z,5.18
2022-08-17T10:12:17.205Z,5.03
2022-08-17T10:15:08.247Z,4.68
2022-08-17T10:17:56.509Z,5.13
2022-08-17T10:20:28.031Z,5.47
2022-08-17T10:23:35.082Z,5.50
2022-08-17T10:26:46.228Z,4.65
2022-08-17T10:29:48.974Z,5.03
2022-08-17T10:32:32.949Z,4.68
2022-08-17T10:35:29.029Z,4.47
2022-08-17T10:38:01.534Z,5.57
2022-08-17T10:43:20.198Z,4.22
2022-08-17T10:46:10.557Z,5.32
2022-08-17T10:49:24.686Z,5.72
2022-08-17T10:51:54.945Z,4.80
2022-08-17T10:54:24.605Z,4.90
2022-08-17T10:56:54.580Z,5.68
2022-08-17T10:59:36.836Z,5.05
2022-08-17T11:02:15.788Z,5.75
2022-08-17T11:05:02.385Z,4.85
2022-08-17T11:07:46.889Z,5.65
2022-08-17T11:10:52.313Z,5.30
2022-08-17T11:13:45.052Z,5.60
2022-08-17T11:16:48.118Z,6.45
2022-08-17T11:19:49.089Z,5.10
2022-08-17T11:22:55.755Z,5.22
2022-08-17T11:25:36.165Z,5.45
2022-08-17T11:28:26.038Z,5.28
2022-08-17T11:30:59.669Z,6.22
2022-08-17T11:33:30.563Z,5.88
2022-08-17T11:36:24.644Z,6.07
2022-08-17T11:39:21.888Z,6.03
2022-08-17T11:42:04.956Z,6.13
2022-08-17T11:44:42.358Z,7.13
2022-08-17T11:47:40.812Z,6.63
2022-08-17T11:50:55.862Z,5.93
2022-08-17T11:53:37.785Z,6.38
2022-08-17T11:56:12.481Z,6.72
2022-08-17T11:58:44.544Z,6.10
2022-08-17T12:03:55.315Z,6.95
2022-08-17T12:09:29.980Z,6.95
2022-08-17T12:12:12.909Z,6.95
2022-08-17T12:15:09.572Z,7.57
2022-08-17T12:17:41.640Z,7.30
2022-08-17T12:20:34.340Z,7.22
2022-08-17T12:23:11.972Z,7.07
2022-08-17T12:25:57.205Z,6.10
2022-08-17T12:28:35.121Z,6.57
2022-08-17T12:31:07.400Z,6.20
2022-08-17T12:33:37.276Z,6.10
2022-08-17T12:36:08.799Z,5.95
2022-08-17T12:38:38.009Z,6.40
2022-08-17T12:41:26.081Z,7.35
2022-08-17T12:44:22.328Z,6.35
2022-08-17T12:47:00.601Z,6.70
2022-08-17T12:49:33.514Z,5.95
2022-08-17T12:52:15.339Z,7.65
2022-08-17T12:54:42.255Z,6.60
2022-08-17T12:57:38.306Z,7.28
2022-08-17T13:00:21.920Z,6.57
2022-08-17T13:02:52.618Z,7.22
2022-08-17T13:05:42.607Z,6.87
2022-08-17T13:08:23.462Z,6.18
2022-08-17T13:10:59.821Z,6.53
2022-08-17T13:13:34.824Z,7.20
2022-08-17T13:16:06.238Z,8.25
2022-08-17T13:18:39.145Z,8.00
2022-08-17T13:21:12.355Z,9.27
2022-08-17T13:23:39.364Z,7.45
2022-08-17T13:26:17.999Z,9.35
2022-08-17T13:28:51.839Z,8.77
2022-08-17T13:31:39.402Z,8.30
2022-08-17T13:34:26.964Z,8.15
2022-08-17T13:37:34.740Z,8.90
2022-08-17T13:40:11.929Z,8.98
2022-08-17T13:42:53.164Z,9.35
2022-08-17T13:45:35.970Z,9.60
2022-08-17T13:48:06.574Z,8.93
2022-08-17T13:50:56.567Z,8.82
2022-08-17T13:53:50.985Z,9.32
2022-08-17T13:56:38.722Z,9.48
2022-08-17T13:59:06.202Z,8.15
2022-08-17T14:01:33.268Z,8.10
2022-08-17T14:04:03.105Z,7.53
2022-08-17T14:06:54.105Z,7.80
2022-08-17T14:09:25.665Z,7.20
2022-08-17T14:11:54.773Z,7.00
2022-08-17T14:14:23.370Z,6.80
2022-08-17T14:16:51.691Z,7.43
2022-08-17T14:19:19.185Z,7.07
2022-08-17T14:21:48.960Z,7.03
2022-08-17T14:24:21.749Z,8.30
2022-08-17T14:26:49.905Z,7.63
2022-08-17T14:29:16.938Z,8.35
2022-08-17T14:31:48.570Z,8.23
2022-08-17T14:34:22.583Z,7.75
2022-08-17T14:36:50.110Z,7.20
2022-08-17T14:39:18.795Z,6.85
2022-08-17T14:41:46.284Z,7.18
2022-08-17T14:44:16.515Z,6.75
2022-08-17T14:46:44.987Z,6.75
2022-08-17T14:49:15.863Z,6.30
2022-08-17T14:51:48.368Z,6.22
2022-08-17T14:54:33.339Z,7.20
2022-08-17T14:57:23.119Z,5.88
2022-08-17T14:59:55.851Z,7.30
2022-08-17T15:02:29.623Z,6.10
2022-08-17T15:05:06.485Z,6.55
2022-08-17T15:08:06.045Z,5.57
2022-08-17T15:10:33.216Z,5.30
2022-08-17T15:13:00.624Z,6.68
2022-08-17T15:15:31.967Z,6.18
2022-08-17T15:18:00.464Z,6.30
2022-08-17T15:20:33.523Z,5.72
2022-08-17T15:23:03.389Z,5.80
2022-08-17T15:25:32.373Z,6.00
2022-08-17T15:28:02.334Z,5.78
2022-08-17T15:30:29.848Z,5.88
2022-08-17T15:33:46.792Z,5.75
2022-08-17T15:36:23.234Z,5.60
2022-08-17T15:38:51.205Z,4.95
2022-08-17T15:41:19.415Z,5.20
2022-08-17T15:43:50.043Z,5.20
2022-08-17T15:46:19.889Z,5.05
2022-08-17T15:48:50.517Z,5.78
2022-08-17T15:51:20.631Z,5.85
2022-08-17T15:53:50.738Z,6.00
2022-08-17T15:56:18.006Z,5.05
2022-08-17T15:58:47.008Z,5.70
2022-08-17T16:01:31.331Z,6.40
2022-08-17T16:04:26.371Z,6.65
2022-08-17T16:06:52.085Z,6.35
2022-08-17T16:09:19.325Z,6.18
2022-08-17T16:11:46.598Z,6.13
2022-08-17T16:14:32.391Z,5.43
2022-08-17T16:17:39.958Z,5.72
2022-08-17T16:20:08.942Z,6.25
2022-08-17T16:22:43.802Z,5.00
2022-08-17T16:25:19.221Z,5.65
2022-08-17T16:27:49.693Z,5.60
2022-08-17T16:30:21.017Z,6.22
2022-08-17T16:32:51.703Z,5.53
2022-08-17T16:35:33.837Z,6.60
2022-08-17T16:38:08.160Z,6.47
2022-08-17T16:40:36.420Z,6.68
2022-08-17T16:43:04.351Z,5.97
2022-08-17T16:45:40.800Z,5.47
2022-08-17T16:48:09.894Z,6.50
2022-08-17T16:50:37.307Z,6.28
2022-08-17T16:53:10.734Z,5.68
2022-08-17T16:55:38.219Z,7.13
2022-08-17T16:58:06.847Z,6.93
2022-08-17T17:00:34.321Z,7.28
2022-08-17T17:03:19.606Z,7.13
2022-08-17T17:05:51.394Z,6.10
2022-08-17T17:08:35.231Z,5.63
2022-08-17T17:11:27.775Z,6.35
2022-08-17T17:14:02.227Z,5.50
2022-08-17T17:16:29.397Z,6.20
2022-08-17T17:19:34.985Z,6.88
2022-08-17T17:22:17.383Z,5.93
2022-08-17T17:24:49.966Z,5.70
2022-08-17T17:27:29.623Z,5.85
2022-08-17T17:30:07.563Z,6.30
2022-08-17T17:32:43.775Z,5.03
2022-08-17T17:35:25.859Z,5.88
2022-08-17T17:37:57.450Z,5.93
2022-08-17T17:40:39.238Z,5.63
2022-08-17T17:43:37.190Z,5.95
2022-08-17T17:46:27.724Z,6.30
2022-08-17T17:48:55.145Z,5.65
2022-08-17T17:52:09.263Z,5.88
2022-08-17T17:54:56.716Z,5.72
2022-08-17T17:57:54.711Z,6.75
2022-08-17T18:00:26.123Z,6.90
2022-08-17T18:03:02.067Z,5.10
2022-08-17T18:05:38.978Z,6.20
2022-08-17T18:08:34.899Z,6.80
2022-08-17T18:11:25.415Z,6.45
2022-08-17T18:14:17.390Z,6.55
2022-08-17T18:16:46.493Z,6.70
2022-08-17T18:19:20.801Z,6.25
2022-08-17T18:21:53.574Z,7.32
2022-08-17T18:24:36.862Z,6.97
2022-08-17T18:27:27.858Z,6.28
2022-08-17T18:29:57.590Z,5.95
2022-08-17T18:32:38.572Z,6.95
2022-08-17T18:35:11.549Z,6.75
2022-08-17T18:37:59.084Z,6.55
2022-08-17T18:40:31.086Z,6.43
2022-08-17T18:43:03.569Z,5.93
2022-08-17T18:45:52.026Z,6.47
2022-08-17T18:48:33.331Z,6.07
2022-08-17T18:51:21.091Z,6.10
2022-08-17T18:54:09.275Z,5.50
2022-08-17T18:56:45.442Z,8.25
2022-08-17T18:59:14.169Z,7.50
2022-08-17T19:02:05.068Z,6.53
2022-08-17T19:04:54.666Z,6.10
2022-08-17T19:07:32.531Z,6.20
2022-08-17T19:10:23.489Z,6.45
2022-08-17T19:13:12.760Z,6.00
2022-08-17T19:16:14.360Z,6.30
2022-08-17T19:18:40.615Z,8.10
2022-08-17T19:21:35.046Z,7.05
2022-08-17T19:24:19.365Z,6.97
2022-08-17T19:27:00.834Z,6.05
2022-08-17T19:29:53.840Z,7.00
2022-08-17T19:32:25.634Z,6.18
2022-08-17T19:34:53.997Z,6.63
2022-08-17T19:37:34.473Z,5.47
2022-08-17T19:40:48.909Z,6.35
2022-08-17T19:43:40.699Z,5.25
2022-08-17T19:46:26.292Z,6.05
2022-08-17T19:48:58.887Z,5.43
2022-08-17T19:51:41.749Z,6.20
2022-08-17T19:54:36.225Z,5.97
2022-08-17T19:57:12.523Z,6.13
2022-08-17T19:59:48.710Z,6.45
2022-08-17T20:02:28.566Z,5.72
2022-08-17T20:05:00.288Z,5.93
2022-08-17T20:07:59.496Z,6.60
2022-08-17T20:10:54.561Z,6.60
2022-08-17T20:13:32.897Z,5.50
2022-08-17T20:16:01.705Z,6.00
2022-08-17T20:18:44.431Z,6.63
2022-08-17T20:21:49.076Z,6.22
2022-08-17T20:24:28.701Z,5.35
2022-08-17T20:27:09.976Z,6.22
2022-08-17T20:29:55.475Z,5.72
2022-08-17T20:32:28.737Z,6.57
2022-08-17T20:38:12.558Z,5.28
2022-08-17T20:40:45.393Z,6.20
2022-08-17T20:43:33.939Z,5.80
2022-08-17T20:46:37.865Z,6.72
2022-08-17T20:52:16.743Z,6.65
2022-08-17T20:54:53.273Z,7.25
2022-08-17T20:57:32.512Z,7.78
2022-08-17T21:00:15.245Z,5.20
2022-08-17T21:02:51.207Z,5.30
2022-08-17T21:05:38.491Z,6.05
2022-08-17T21:08:15.727Z,7.05
2022-08-17T21:10:45.652Z,5.90
2022-08-17T21:13:15.690Z,6.07
2022-08-17T21:16:00.681Z,5.25
2022-08-17T21:18:47.360Z,5.47
2022-08-17T21:21:50.874Z,7.38
2022-08-17T21:24:37.983Z,6.20
2022-08-17T21:27:05.435Z,7.13
2022-08-17T21:29:40.385Z,5.95
2022-08-17T21:32:08.025Z,6.68
2022-08-17T21:34:42.665Z,6.20
2022-08-17T21:37:46.492Z,6.75
2022-08-17T21:40:13.430Z,5.90
2022-08-17T21:42:50.379Z,5.82
2022-08-17T21:45:25.660Z,6.32
2022-08-17T21:48:19.728Z,6.47
2022-08-17T21:50:57.830Z,5.57
2022-08-17T21:53:34.180Z,6.45
2022-08-17T21:56:01.348Z,8.00
2022-08-17T21:58:32.359Z,6.28
2022-08-17T22:01:21.266Z,6.07
2022-08-17T22:04:03.989Z,6.75
2022-08-17T22:06:56.634Z,6.55
2022-08-17T22:09:32.374Z,6.25
2022-08-17T22:12:07.696Z,7.75
2022-08-17T22:15:04.296Z,6.57
2022-08-17T22:17:45.331Z,7.03
2022-08-17T22:20:20.237Z,6.38
2022-08-17T22:23:08.318Z,6.80
2022-08-17T22:25:39.342Z,6.32
2022-08-17T22:28:09.595Z,7.43
2022-08-17T22:30:38.551Z,8.15
2022-08-17T22:33:30.843Z,5.97
2022-08-17T22:36:25.672Z,6.70
2022-08-17T22:38:56.676Z,6.30
2022-08-17T22:41:31.862Z,6.63
2022-08-17T22:44:21.187Z,7.15
2022-08-17T22:46:59.567Z,6.85
2022-08-17T22:49:29.324Z,5.78
2022-08-17T22:52:20.535Z,5.53
2022-08-17T22:55:09.182Z,7.32
2022-08-17T22:58:03.344Z,6.22
2022-08-17T23:00:35.433Z,5.95
2022-08-17T23:03:17.922Z,6.72
2022-08-17T23:06:09.802Z,5.80
2022-08-17T23:08:55.155Z,6.72
2022-08-17T23:11:36.875Z,6.20
2022-08-17T23:14:16.526Z,6.72
2022-08-17T23:16:43.646Z,6.65
2022-08-17T23:19:17.815Z,5.90
2022-08-17T23:21:45.233Z,5.97
2022-08-17T23:24:19.869Z,8.02
2022-08-17T23:26:47.518Z,5.80
2022-08-17T23:29:14.847Z,6.18
2022-08-17T23:31:42.039Z,6.47
2022-08-17T23:34:11.904Z,6.47
2022-08-17T23:36:39.104Z,6.43
2022-08-17T23:39:07.161Z,6.47
2022-08-17T23:41:37.945Z,6.25
2022-08-17T23:44:06.487Z,7.47
2022-08-17T23:46:34.680Z,5.82
2022-08-17T23:49:01.898Z,7.28
2022-08-17T23:51:34.693Z,6.95
2022-08-17T23:54:12.705Z,6.85
2022-08-17T23:56:48.175Z,6.35
2022-08-17T23:59:17.015Z,7.72
